Time;durP1;ratioP1;P1;durP2;ratioP2;P2;SDS_P1;SDS_P2;PMS_P1;PMS_P2;Temp;Humidity;BMP_temperature;BMP_pressure;BME280_temperature;BME280_humidity;BME280_pressure;Samples;Min_cycle;Max_cycle;Signal;HPM_P1;HPM_P2
2022/12/15 00:39:21;;;;;;;;;59.25;45.25;;;;;-0.33;65.40;99716.00;4940185;28;45537;-86
2022/12/15 00:41:47;;;;;;;;;60.25;44.00;;;;;-0.96;64.93;99617.53;4939389;28;45511;-88
2022/12/15 00:44:12;;;;;;;;;62.25;49.25;;;;;-0.47;65.24;99704.59;4942508;28;45394;-86
2022/12/15 00:46:53;;;;;;;;;67.25;50.25;;;;;-0.56;65.64;99679.44;4941808;28;45222;-87
2022/12/15 01:22:09;;;;;;;;;58.75;44.75;;;;;-1.00;65.61;99701.41;4941156;28;45761;-87
2022/12/15 01:24:36;;;;;;;;;53.00;43.25;;;;;-0.50;65.92;99790.25;4952799;28;45432;-88
2022/12/15 01:27:01;;;;;;;;;47.75;44.25;;;;;-0.54;65.77;99790.22;4941787;28;45538;-89
2022/12/15 01:29:26;;;;;;;;;57.00;49.25;;;;;-0.49;65.98;99792.84;4941050;28;45527;-88
2022/12/15 01:31:52;;;;;;;;;53.00;45.75;;;;;-2.05;65.94;99549.59;4955848;28;46836;-88
2022/12/15 01:34:18;;;;;;;;;53.00;46.00;;;;;-1.37;65.94;99658.53;4941908;28;45536;-88
2022/12/15 01:36:45;;;;;;;;;54.00;44.25;;;;;-1.12;65.97;99725.44;4939152;28;45350;-88
2022/12/15 01:39:11;;;;;;;;;58.50;46.75;;;;;-0.60;66.04;99810.03;4957502;28;45533;-87
2022/12/15 01:41:36;;;;;;;;;58.00;44.75;;;;;-1.18;66.41;99727.09;4943841;28;45378;-87
2022/12/15 01:44:23;;;;;;;;;61.00;45.75;;;;;-0.66;66.04;99810.81;4961677;28;45473;-87
2022/12/15 01:46:54;;;;;;;;;44.25;39.25;;;;;-1.80;66.31;99623.34;4941830;28;45535;-87
2022/12/15 01:49:24;;;;;;;;;53.00;42.50;;;;;-1.58;66.25;99661.69;4939279;28;45376;-86
2022/12/15 01:52:00;;;;;;;;;60.00;45.50;;;;;-1.59;66.52;99684.16;4938872;28;48154;-87
2022/12/15 01:54:32;;;;;;;;;55.75;44.50;;;;;-0.76;66.21;99806.34;4939974;28;45345;-86
2022/12/15 01:57:13;;;;;;;;;53.75;45.00;;;;;-1.28;66.40;99731.25;4938720;28;45424;-86
2022/12/15 01:59:45;;;;;;;;;56.75;47.50;;;;;-1.21;66.34;99742.59;4941237;28;45506;-86
2022/12/15 02:02:12;;;;;;;;;50.00;42.50;;;;;-1.03;66.71;99784.38;4939845;28;45615;-86
2022/12/15 02:04:37;;;;;;;;;55.50;44.50;;;;;-1.13;66.32;99761.72;4961472;28;45486;-87
2022/12/15 02:07:03;;;;;;;;;55.25;46.25;;;;;-1.29;66.25;99730.41;4948219;28;45284;-87
2022/12/15 02:09:29;;;;;;;;;61.50;44.50;;;;;-1.03;66.26;99774.00;4961497;28;45385;-86
2022/12/15 02:12:24;;;;;;;;;61.75;48.75;;;;;-0.88;66.46;99794.09;4947728;28;46243;-86
2022/12/15 02:15:32;;;;;;;;;63.00;47.00;;;;;-0.92;66.61;99792.31;4947236;28;44840;-86
2022/12/15 02:18:16;;;;;;;;;57.50;47.25;;;;;-1.35;66.50;99737.19;4939259;28;45517;-87
2022/12/15 02:21:06;;;;;;;;;59.50;48.50;;;;;-0.95;66.46;99807.84;4940591;28;45280;-86
2022/12/15 02:23:52;;;;;;;;;55.00;42.50;;;;;-1.12;66.60;99781.66;4939525;28;47839;-86
2022/12/15 02:26:24;;;;;;;;;53.75;43.25;;;;;-1.01;66.80;99803.41;4935309;28;45702;-86
2022/12/15 02:29:07;;;;;;;;;57.00;45.75;;;;;-1.02;66.58;99800.81;4951542;28;45409;-88
2022/12/15 02:31:49;;;;;;;;;55.25;45.25;;;;;-1.04;66.66;99808.56;4959978;28;45322;-86
2022/12/15 02:34:30;;;;;;;;;61.50;46.25;;;;;-1.51;66.87;99729.19;4940718;28;46510;-87
2022/12/15 02:37:16;;;;;;;;;55.75;46.50;;;;;-2.06;66.30;99635.91;4939775;28;45492;-87
2022/12/15 02:39:42;;;;;;;;;64.25;53.25;;;;;-1.49;66.91;99743.06;4942305;28;45418;-87
2022/12/15 02:42:09;;;;;;;;;51.75;44.25;;;;;-1.37;66.67;99757.91;4943321;28;45515;-87
2022/12/15 02:44:42;;;;;;;;;58.75;45.75;;;;;-2.88;66.50;99502.56;4945103;28;47868;-88
2022/12/15 02:47:16;;;;;;;;;56.50;49.25;;;;;-1.13;66.87;99805.84;4957257;28;45292;-86
2022/12/15 02:49:51;;;;;;;;;58.75;46.25;;;;;-1.15;66.81;99812.72;4939611;28;45512;-88
2022/12/15 02:53:00;;;;;;;;;58.25;47.00;;;;;-1.81;66.56;99714.03;4939050;28;45574;-88
2022/12/15 02:55:50;;;;;;;;;56.25;47.50;;;;;-1.20;66.84;99822.13;4942593;28;46315;-88
2022/12/15 02:58:28;;;;;;;;;70.00;51.75;;;;;-1.71;66.53;99741.84;4943794;28;45496;-88
2022/12/15 03:01:04;;;;;;;;;54.50;48.50;;;;;-1.26;66.88;99823.81;4943818;28;45405;-88
2022/12/15 03:03:31;;;;;;;;;64.50;51.50;;;;;-1.29;66.63;99813.38;4940035;28;45451;-88
2022/12/15 03:05:56;;;;;;;;;65.25;47.75;;;;;-1.31;66.82;99809.88;4937956;28;48003;-88
2022/12/15 03:08:23;;;;;;;;;54.75;46.75;;;;;-1.32;66.88;99810.75;4944169;28;45291;-88
2022/12/15 03:10:53;;;;;;;;;65.00;51.75;;;;;-1.35;67.38;99809.78;4943241;28;45451;-87
2022/12/15 03:13:19;;;;;;;;;56.00;47.00;;;;;-1.85;66.96;99714.84;4944016;28;45503;-87
2022/12/15 03:15:45;;;;;;;;;56.75;47.25;;;;;-2.03;66.84;99687.75;4940063;28;45477;-87
2022/12/15 03:18:10;;;;;;;;;46.75;43.00;;;;;-1.79;67.08;99740.84;4950602;28;45412;-86
2022/12/15 03:20:35;;;;;;;;;60.00;49.00;;;;;-2.20;66.84;99674.53;4925887;28;45362;-86
2022/12/15 03:23:01;;;;;;;;;54.50;46.25;;;;;-2.87;66.86;99575.84;4924341;28;45225;-88
2022/12/15 03:25:27;;;;;;;;;66.00;48.75;;;;;-2.58;67.05;99612.59;4921056;28;45456;-87
2022/12/15 03:27:52;;;;;;;;;64.75;51.00;;;;;-2.25;67.11;99680.47;4932735;28;45572;-89
2022/12/15 03:30:18;;;;;;;;;68.75;52.25;;;;;-1.49;67.09;99812.16;4933396;28;45306;-86
2022/12/15 03:32:43;;;;;;;;;47.00;43.50;;;;;-2.52;67.22;99640.28;4941897;28;45429;-87
2022/12/15 03:35:09;;;;;;;;;54.75;46.00;;;;;-1.51;67.38;99808.69;4953974;28;47507;-87
2022/12/15 03:37:35;;;;;;;;;65.75;50.25;;;;;-2.91;66.86;99568.91;4939256;28;45325;-87
2022/12/15 03:40:00;;;;;;;;;55.00;45.75;;;;;-2.54;67.17;99631.63;4939814;28;45339;-87
2022/12/15 03:45:09;;;;;;;;;57.00;47.00;;;;;-1.58;67.29;99805.09;4942315;28;45274;-87
2022/12/15 03:47:40;;;;;;;;;63.25;51.25;;;;;-2.45;67.27;99662.00;4941212;28;45459;-87
2022/12/15 03:50:06;;;;;;;;;66.75;53.00;;;;;-1.61;66.93;99800.75;4938853;28;45433;-87
2022/12/15 03:52:31;;;;;;;;;56.50;48.50;;;;;-2.45;66.98;99646.47;4940548;28;45318;-86
2022/12/15 03:54:56;;;;;;;;;66.75;49.75;;;;;-2.86;67.63;99586.22;4942546;28;45874;-87
2022/12/15 03:57:22;;;;;;;;;57.75;50.00;;;;;-1.65;67.58;99798.09;4951083;28;46238;-88
2022/12/15 03:59:47;;;;;;;;;67.00;50.00;;;;;-2.07;67.71;99727.41;4942746;28;45493;-88
2022/12/15 04:02:13;;;;;;;;;60.00;51.75;;;;;-1.67;67.35;99813.63;4940107;28;45280;-88
2022/12/15 04:04:38;;;;;;;;;66.75;51.25;;;;;-2.09;67.58;99749.81;4939255;28;45442;-88
2022/12/15 04:07:03;;;;;;;;;57.00;44.50;;;;;-2.62;67.65;99674.63;4945312;28;45501;-87
2022/12/15 04:09:29;;;;;;;;;51.25;45.25;;;;;-1.67;67.02;99821.38;4946123;28;45489;-87
2022/12/15 04:11:54;;;;;;;;;56.25;45.50;;;;;-2.47;67.73;99695.63;4945186;28;45501;-88
2022/12/15 04:14:19;;;;;;;;;63.00;48.50;;;;;-2.78;67.53;99627.78;4940506;28;46931;-87
2022/12/15 04:16:45;;;;;;;;;60.75;50.25;;;;;-2.65;67.76;99643.53;4938381;28;45421;-87
2022/12/15 04:21:54;;;;;;;;;56.00;47.25;;;;;-2.08;67.30;99725.69;4939527;28;45260;-88
2022/12/15 05:32:37;;;;;;;;;59.00;48.50;;;;;-1.36;67.57;99808.94;4943512;28;45393;-87
2022/12/15 05:35:03;;;;;;;;;40.00;36.00;;;;;-2.62;67.14;99597.00;4941387;28;45365;-89
2022/12/15 05:37:29;;;;;;;;;60.00;49.50;;;;;-1.71;67.44;99746.16;4955585;28;45394;-87
2022/12/15 05:39:54;;;;;;;;;57.00;45.75;;;;;-2.52;67.86;99611.81;4942330;28;45334;-87
2022/12/15 05:42:20;;;;;;;;;57.00;47.00;;;;;-2.69;67.55;99588.25;4955525;28;45438;-87
2022/12/15 05:44:45;;;;;;;;;58.50;49.00;;;;;-1.86;67.93;99741.59;4938251;28;45403;-87
2022/12/15 05:47:10;;;;;;;;;61.75;49.75;;;;;-2.32;67.46;99670.00;4938271;28;45411;-87
2022/12/15 05:49:36;;;;;;;;;52.50;47.00;;;;;-1.98;67.73;99722.38;4938140;28;45430;-85
2022/12/15 05:52:01;;;;;;;;;54.50;45.00;;;;;-2.18;68.08;99697.88;4942496;28;45338;-87
2022/12/15 05:54:27;;;;;;;;;51.75;45.00;;;;;-1.77;67.84;99754.69;4940162;28;45386;-87
2022/12/15 05:56:52;;;;;;;;;54.75;47.00;;;;;-1.84;67.84;99750.25;4941377;28;45470;-88
2022/12/15 05:59:18;;;;;;;;;69.50;52.00;;;;;-2.79;67.37;99605.31;4940466;28;46453;-87
2022/12/15 06:01:44;;;;;;;;;56.75;48.50;;;;;-2.25;67.88;99689.09;4959522;28;45469;-87
2022/12/15 06:04:13;;;;;;;;;67.25;49.00;;;;;-1.71;68.21;99777.25;4941780;28;45541;-88
2022/12/15 06:06:39;;;;;;;;;57.75;46.00;;;;;-2.88;67.70;99582.75;4943849;28;44934;-87
2022/12/15 06:09:06;;;;;;;;;53.75;46.75;;;;;-2.21;67.34;99697.81;4947192;28;45996;-88
2022/12/15 06:11:31;;;;;;;;;54.75;47.50;;;;;-1.49;67.27;99818.25;4941576;28;45975;-88
2022/12/15 06:13:57;;;;;;;;;49.25;44.75;;;;;-1.84;68.25;99766.69;4939837;28;45547;-88
2022/12/15 06:16:24;;;;;;;;;53.25;46.50;;;;;-1.77;67.62;99767.66;4943292;28;45492;-88
2022/12/15 06:18:56;;;;;;;;;66.50;51.25;;;;;-1.64;68.16;99789.44;4942331;28;47696;-89
2022/12/15 06:21:25;;;;;;;;;60.00;44.75;;;;;-1.86;67.99;99773.53;4945637;28;45509;-89
2022/12/15 06:23:52;;;;;;;;;64.75;51.00;;;;;-2.20;67.85;99705.59;4955620;28;45416;-88
2022/12/15 06:26:26;;;;;;;;;52.00;45.25;;;;;-2.68;67.21;99626.22;4940653;28;45482;-88
2022/12/15 06:28:55;;;;;;;;;66.25;51.00;;;;;-3.21;67.28;99539.03;4955260;28;47133;-88
2022/12/15 06:31:24;;;;;;;;;54.75;46.75;;;;;-1.77;67.78;99778.00;4943562;28;45239;-87
2022/12/15 06:33:50;;;;;;;;;59.00;48.25;;;;;-2.23;67.62;99695.19;4952553;28;45472;-88
2022/12/15 06:36:17;;;;;;;;;59.25;49.00;;;;;-2.09;68.22;99731.69;4921141;28;45562;-87
2022/12/15 06:38:43;;;;;;;;;59.50;46.00;;;;;-2.15;68.00;99726.41;4941137;28;47281;-87
2022/12/15 06:41:14;;;;;;;;;58.50;48.50;;;;;-2.26;68.05;99704.59;4949681;28;45443;-88
2022/12/15 06:43:40;;;;;;;;;51.75;45.25;;;;;-2.07;67.50;99722.22;4948412;28;45316;-87
2022/12/15 06:46:06;;;;;;;;;49.00;44.50;;;;;-2.30;67.77;99695.91;4938562;28;45437;-87
2022/12/15 06:48:32;;;;;;;;;61.25;48.50;;;;;-1.51;67.94;99826.84;4953996;28;47657;-88
2022/12/15 06:51:05;;;;;;;;;58.25;49.00;;;;;-2.41;67.94;99672.44;4955938;28;45406;-87
2022/12/15 06:53:31;;;;;;;;;61.50;47.75;;;;;-1.87;67.97;99776.09;4940626;28;45397;-88
2022/12/15 06:56:01;;;;;;;;;63.00;48.00;;;;;-2.53;68.00;99664.44;4958094;28;45322;-87
2022/12/15 06:58:27;;;;;;;;;64.75;51.75;;;;;-2.47;67.72;99687.84;4944946;28;45536;-86
2022/12/15 07:00:52;;;;;;;;;67.00;54.25;;;;;-1.50;67.91;99857.97;4957182;28;45453;-87
2022/12/15 07:03:19;;;;;;;;;56.50;48.00;;;;;-3.47;68.16;99528.19;4944481;28;45418;-88
2022/12/15 07:05:45;;;;;;;;;66.50;47.50;;;;;-2.92;68.00;99618.88;4945084;28;45466;-87
2022/12/15 07:08:13;;;;;;;;;59.25;50.25;;;;;-2.19;67.65;99732.38;4948415;28;45661;-87
2022/12/15 07:10:40;;;;;;;;;59.75;48.75;;;;;-2.55;67.52;99668.72;4944748;28;45422;-88
2022/12/15 07:13:08;;;;;;;;;52.00;44.00;;;;;-1.51;68.15;99832.03;4955569;28;45203;-88
2022/12/15 07:15:34;;;;;;;;;50.75;46.25;;;;;-1.52;67.96;99841.53;4941356;28;45500;-87
2022/12/15 07:17:59;;;;;;;;;66.75;51.75;;;;;-2.34;67.89;99714.81;4942010;28;46442;-86
2022/12/15 07:20:25;;;;;;;;;67.50;53.75;;;;;-2.66;67.86;99675.41;4940555;28;45418;-87
2022/12/15 07:22:51;;;;;;;;;66.25;51.50;;;;;-2.75;67.91;99666.63;4938826;28;45460;-87
2022/12/15 07:25:17;;;;;;;;;68.75;55.00;;;;;-2.19;68.51;99758.25;4940751;28;45455;-87
2022/12/15 07:27:43;;;;;;;;;59.00;49.50;;;;;-1.87;68.45;99809.78;4948226;28;45514;-86
2022/12/15 07:30:09;;;;;;;;;69.25;52.75;;;;;-2.19;68.54;99797.97;4949424;28;45462;-87
2022/12/15 07:32:34;;;;;;;;;50.25;35.75;;;;;-2.61;67.84;99720.34;4958884;28;45432;-88
2022/12/15 07:35:00;;;;;;;;;67.50;49.25;;;;;-2.01;68.04;99817.31;4953432;28;45499;-87
2022/12/15 07:37:28;;;;;;;;;64.00;49.75;;;;;-1.67;68.36;99893.06;4923700;28;46126;-86
2022/12/15 07:39:54;;;;;;;;;63.25;50.50;;;;;-2.06;68.25;99822.41;4958530;28;45671;-88
2022/12/15 07:42:27;;;;;;;;;56.25;48.00;;;;;-1.65;67.98;99900.03;4949305;28;45337;-87
2022/12/15 07:44:53;;;;;;;;;58.50;46.25;;;;;-3.75;67.88;99541.41;4951348;28;45556;-87
2022/12/15 07:47:29;;;;;;;;;63.25;47.50;;;;;-1.67;67.94;99896.56;4960288;28;46975;-88
2022/12/15 07:50:04;;;;;;;;;58.75;50.00;;;;;-2.51;68.05;99750.75;4960557;28;44831;-93
2022/12/15 07:52:33;;;;;;;;;55.00;49.50;;;;;-3.27;67.86;99624.22;4946059;28;44880;-88
2022/12/15 07:54:59;;;;;;;;;64.50;52.00;;;;;-2.27;67.86;99803.88;4946701;28;45313;-88
2022/12/15 07:57:24;;;;;;;;;68.25;50.50;;;;;-2.78;68.44;99713.16;4958981;28;47098;-87
2022/12/15 07:59:50;;;;;;;;;54.75;46.25;;;;;-3.29;68.32;99625.91;4939426;28;45419;-87
2022/12/15 08:02:16;;;;;;;;;59.75;48.75;;;;;-1.89;68.16;99839.97;4954880;28;45484;-87
2022/12/15 08:04:42;;;;;;;;;59.25;47.00;;;;;-1.50;68.10;99911.53;4955356;28;45606;-86
2022/12/15 08:07:09;;;;;;;;;61.50;46.00;;;;;-2.27;67.93;99767.63;4946531;28;45488;-87
2022/12/15 08:09:35;;;;;;;;;64.50;45.50;;;;;-1.41;68.10;99921.19;4943615;28;45298;-86
2022/12/15 08:12:00;;;;;;;;;63.50;51.25;;;;;-2.22;67.82;99794.44;4934008;28;45403;-88
2022/12/15 08:14:28;;;;;;;;;61.25;46.00;;;;;-1.31;68.13;99931.75;4922360;28;45443;-88
2022/12/15 08:16:54;;;;;;;;;71.00;51.00;;;;;-1.70;67.90;99857.63;4952295;28;48344;-85
2022/12/15 08:19:20;;;;;;;;;70.25;55.25;;;;;-1.66;67.78;99864.59;4939620;28;45323;-88
2022/12/15 08:21:46;;;;;;;;;60.75;47.25;;;;;-1.62;67.97;99865.53;4946609;28;45227;-87
2022/12/15 08:24:13;;;;;;;;;59.75;50.00;;;;;-1.82;67.43;99813.34;4934222;28;45340;-87
2022/12/15 08:26:40;;;;;;;;;68.00;51.25;;;;;-1.87;67.80;99818.41;4920577;28;45509;-87
2022/12/15 08:29:09;;;;;;;;;65.50;49.50;;;;;-1.08;67.97;99936.47;4927694;28;45522;-86
2022/12/15 08:31:35;;;;;;;;;60.75;49.00;;;;;-1.02;67.84;99933.97;4940566;28;45390;-87
2022/12/15 08:34:00;;;;;;;;;55.50;48.50;;;;;-2.14;67.37;99764.41;4958482;28;45278;-88
2022/12/15 08:36:27;;;;;;;;;66.75;52.75;;;;;-1.69;67.51;99815.28;4941041;28;45555;-87
2022/12/15 08:38:55;;;;;;;;;64.25;51.50;;;;;-1.88;67.40;99770.06;4955694;28;45469;-87
2022/12/15 08:41:24;;;;;;;;;69.75;50.50;;;;;-1.54;67.41;99826.78;4940285;28;45377;-87
2022/12/15 08:43:50;;;;;;;;;59.00;47.50;;;;;-2.00;66.86;99739.63;4936342;28;45620;-87
2022/12/15 08:46:18;;;;;;;;;58.75;49.00;;;;;-1.35;67.23;99847.00;4934654;28;47102;-86
2022/12/15 08:48:44;;;;;;;;;69.50;56.25;;;;;-1.29;67.30;99857.47;4939370;28;45457;-93
2022/12/15 08:51:10;;;;;;;;;61.75;49.00;;;;;-2.78;68.14;99588.97;4941574;28;45347;-90
2022/12/15 08:53:37;;;;;;;;;67.25;53.75;;;;;-1.53;67.19;99807.81;4942572;28;45696;-91
2022/12/15 08:56:15;;;;;;;;;62.75;49.75;;;;;-0.73;67.58;99928.38;4935645;28;47235;-89
2022/12/15 08:58:41;;;;;;;;;70.75;54.00;;;;;-1.90;67.46;99724.22;4946000;28;45349;-90
2022/12/15 09:01:11;;;;;;;;;64.75;49.00;;;;;-1.00;67.40;99862.25;4964037;28;45506;-92
2022/12/15 09:03:36;;;;;;;;;64.25;52.25;;;;;-2.18;67.25;99661.63;4942784;28;45358;-91
2022/12/15 09:06:12;;;;;;;;;72.75;58.50;;;;;-1.09;66.84;99831.84;4955274;28;47915;-90
2022/12/15 09:08:37;;;;;;;;;64.75;52.25;;;;;-0.85;67.36;99861.63;4960545;28;45383;-90
2022/12/15 09:11:04;;;;;;;;;62.25;50.00;;;;;-1.31;67.24;99776.16;4946511;28;45562;-89
2022/12/15 09:13:30;;;;;;;;;65.00;51.75;;;;;-0.30;67.19;99916.03;4959528;28;45572;-90
2022/12/15 09:16:00;;;;;;;;;60.50;48.75;;;;;-1.01;67.30;99793.03;4938836;28;48275;-90
2022/12/15 09:18:26;;;;;;;;;61.75;48.50;;;;;-0.75;66.87;99808.09;4959360;28;45420;-90
2022/12/15 09:20:52;;;;;;;;;73.50;57.00;;;;;0.08;66.63;99936.47;4954446;28;45341;-91
2022/12/15 09:23:18;;;;;;;;;71.25;53.00;;;;;-1.02;67.04;99723.81;4939043;28;45473;-90
2022/12/15 09:25:45;;;;;;;;;70.00;56.25;;;;;-1.07;66.44;99704.75;4940625;28;46988;-89
2022/12/15 09:28:12;;;;;;;;;71.50;56.00;;;;;-0.71;65.91;99760.59;4944634;28;45349;-91
2022/12/15 09:30:38;;;;;;;;;70.75;53.00;;;;;-0.50;66.20;99790.25;4943675;28;45247;-87
2022/12/15 09:33:03;;;;;;;;;71.50;57.50;;;;;0.50;66.12;99944.72;4943283;28;45319;-87
2022/12/15 09:35:29;;;;;;;;;26.75;15.75;;;;;0.26;65.61;99893.31;4944579;28;46228;-87
2022/12/15 09:37:56;;;;;;;;;59.00;47.75;;;;;0.41;66.00;99901.31;4952920;28;45433;-88
2022/12/15 09:40:22;;;;;;;;;67.00;48.25;;;;;0.81;66.22;99971.94;4936852;28;45366;-88
2022/12/15 09:42:55;;;;;;;;;66.75;55.75;;;;;-0.31;65.82;99735.06;4937906;28;45553;-88
2022/12/15 09:45:31;;;;;;;;;60.25;46.75;;;;;0.64;65.54;99882.47;4938338;28;45995;-87
2022/12/15 09:48:02;;;;;;;;;64.75;53.00;;;;;0.83;65.82;99886.94;4939801;28;45536;-88
2022/12/15 09:50:35;;;;;;;;;65.75;52.50;;;;;1.35;65.83;99961.13;4942622;28;45397;-88
2022/12/15 09:53:02;;;;;;;;;65.50;53.00;;;;;0.89;65.43;99876.59;4947916;28;45443;-90
2022/12/15 09:55:31;;;;;;;;;58.00;49.25;;;;;1.63;64.86;99966.56;4950529;28;45444;-91
2022/12/15 09:58:21;;;;;;;;;58.25;47.50;;;;;1.83;64.64;99977.09;4949875;28;45438;-90
2022/12/15 10:01:07;;;;;;;;;60.00;50.00;;;;;0.99;64.11;99769.97;4953781;28;44680;-91
2022/12/15 10:03:58;;;;;;;;;65.00;52.25;;;;;2.08;64.37;99916.41;4950427;28;45508;-90
2022/12/15 10:06:49;;;;;;;;;61.50;50.25;;;;;1.62;63.44;99787.66;4962885;28;47333;-90
2022/12/15 10:09:32;;;;;;;;;63.75;50.00;;;;;2.79;63.19;99949.66;4946166;28;45416;-91
2022/12/15 10:12:18;;;;;;;;;58.00;45.00;;;;;1.38;63.22;99717.25;4942126;28;45390;-92
2022/12/15 10:15:06;;;;;;;;;64.75;49.25;;;;;2.35;63.66;99848.69;4942001;28;45288;-91
2022/12/15 10:17:45;;;;;;;;;59.75;49.50;;;;;3.01;63.84;99948.81;4924675;28;46710;-91
2022/12/15 10:20:25;;;;;;;;;63.75;51.00;;;;;2.69;63.29;99887.88;4967061;28;45333;-92
2022/12/15 10:23:01;;;;;;;;;67.75;54.00;;;;;1.93;62.82;99759.97;4947837;28;45416;-91
2022/12/15 10:25:33;;;;;;;;;67.25;52.25;;;;;1.86;63.68;99756.44;4940800;28;45422;-91
2022/12/15 10:29:03;;;;;;;;;58.50;49.75;;;;;3.06;63.59;99935.75;4963117;28;45662;-92
2022/12/15 10:32:03;;;;;;;;;63.00;49.00;;;;;1.60;63.25;99707.75;4900612;28;45473;-94
2022/12/15 10:34:58;;;;;;;;;68.50;52.00;;;;;1.65;63.35;99681.69;4892318;29;45419;-95
2022/12/15 10:41:00;;;;;;;;;58.25;46.25;;;;;2.97;62.32;99784.31;4889618;29;45610;-91
2022/12/15 10:51:28;;;;;;;;;47.75;39.25;;;;;4.26;61.09;99887.56;4877455;29;45517;-92
2022/12/15 10:54:51;;;;;;;;;57.50;44.75;;;;;4.35;60.84;99871.81;4856485;29;46290;-91
2022/12/15 10:57:56;;;;;;;;;68.75;51.00;;;;;3.17;60.84;99677.19;4876648;29;45362;-93
2022/12/15 11:04:40;;;;;;;;;68.00;52.25;;;;;4.64;60.17;99860.28;4873703;29;45531;-93
2022/12/15 11:14:13;;;;;;;;;60.75;50.00;;;;;4.22;57.91;99775.97;4838112;29;45421;-92
2022/12/15 11:16:59;;;;;;;;;60.50;50.50;;;;;3.56;58.67;99607.34;4834626;29;45597;-92
2022/12/15 11:26:50;;;;;;;;;;;;;;;;;;;;;
2022/12/15 11:36:30;;;;;;;;;54.75;42.25;;;;;5.77;56.03;99817.28;4829539;29;44778;-91
2022/12/15 11:59:09;;;;;;;;;64.00;50.25;;;;;3.02;57.19;99488.41;1288417;23;46311;-92
2022/12/15 12:01:55;;;;;;;;;67.00;49.50;;;;;4.35;56.10;99719.19;4971062;28;45342;-93
2022/12/15 12:04:29;;;;;;;;;57.25;44.75;;;;;3.83;55.70;99642.88;4971160;28;45497;-92
2022/12/15 12:07:07;;;;;;;;;53.00;42.25;;;;;3.99;57.05;99669.75;4972178;28;47499;-90
2022/12/15 12:10:27;;;;;;;;;49.75;42.00;;;;;4.71;57.73;99780.84;4972738;28;45404;-92
2022/12/15 12:13:27;;;;;;;;;62.25;44.00;;;;;4.83;56.02;99768.50;4952265;28;45530;-89
2022/12/15 12:16:17;;;;;;;;;59.00;45.50;;;;;4.83;56.85;99768.50;4944060;28;45318;-88
2022/12/15 12:19:01;;;;;;;;;55.25;44.75;;;;;3.87;56.94;99591.41;4946850;28;45274;-90
2022/12/15 12:21:49;;;;;;;;;58.00;44.75;;;;;4.14;55.25;99615.59;4948498;28;45361;-91
2022/12/15 12:24:32;;;;;;;;;57.00;46.00;;;;;4.30;55.65;99595.38;4984477;28;45558;-89
2022/12/15 12:27:02;;;;;;;;;54.25;44.75;;;;;5.81;55.18;99762.16;4977844;28;45106;-93
2022/12/15 12:29:38;;;;;;;;;56.00;42.75;;;;;5.78;54.90;99630.22;4964631;28;46188;-90
2022/12/15 12:32:18;;;;;;;;;54.50;44.50;;;;;6.41;54.05;99626.59;4989579;28;45409;-91
2022/12/15 12:35:37;;;;;;;;;55.25;42.50;;;;;7.72;52.49;99736.13;4983888;28;44721;-90
2022/12/15 12:38:08;;;;;;;;;52.25;41.00;;;;;6.87;52.66;99530.28;4944599;28;44853;-90
2022/12/15 12:41:09;;;;;;;;;57.50;41.50;;;;;8.30;52.62;99683.91;4908465;28;46463;-91
2022/12/15 12:43:40;;;;;;;;;50.00;39.75;;;;;9.11;52.60;99706.44;4901009;28;45755;-91
2022/12/15 12:46:22;;;;;;;;;37.75;35.25;;;;;8.16;52.07;99465.78;4908661;28;45360;-91
2022/12/15 12:48:57;;;;;;;;;51.00;39.25;;;;;10.20;51.84;99723.44;4928166;28;45401;-92
2022/12/15 12:51:36;;;;;;;;;42.50;37.50;;;;;9.98;50.11;99607.97;4925717;28;47146;-91
2022/12/15 12:54:57;;;;;;;;;51.50;39.75;;;;;9.06;50.53;99398.16;4885827;29;45427;-92
2022/12/15 12:57:36;;;;;;;;;45.75;37.50;;;;;11.29;50.00;99709.16;4852904;29;45428;-91
2022/12/15 13:00:16;;;;;;;;;44.75;37.50;;;;;11.46;48.85;99711.19;4847423;29;45470;-91
2022/12/15 13:03:11;;;;;;;;;48.50;39.50;;;;;10.70;46.93;99580.00;4850624;29;47149;-92
2022/12/15 13:05:41;;;;;;;;;48.25;38.25;;;;;10.99;50.08;99709.38;4850686;29;45472;-91
2022/12/15 13:08:07;;;;;;;;;49.00;38.75;;;;;10.47;50.96;99719.91;4869299;29;45327;-90
2022/12/15 13:10:47;;;;;;;;;51.25;40.25;;;;;7.77;52.27;99350.19;4868351;29;45429;-92
2022/12/15 13:13:31;;;;;;;;;47.25;36.25;;;;;9.28;52.08;99709.47;4886569;29;45288;-91
2022/12/15 13:16:20;;;;;;;;;44.25;37.75;;;;;6.83;52.13;99413.91;4898185;29;45298;-90
2022/12/15 13:19:03;;;;;;;;;53.00;43.00;;;;;7.85;48.71;99711.31;4888981;29;45582;-90
2022/12/15 13:21:43;;;;;;;;;50.25;40.00;;;;;6.62;51.18;99643.72;4884420;29;45288;-90
2022/12/15 13:24:18;;;;;;;;;53.50;43.75;;;;;6.49;51.82;99716.56;4913556;29;47847;-90
2022/12/15 13:26:44;;;;;;;;;56.50;44.50;;;;;5.01;51.64;99563.16;4912745;29;44853;-90
2022/12/15 13:29:14;;;;;;;;;49.00;43.00;;;;;3.87;51.52;99466.81;4891415;29;45413;-89
2022/12/15 13:31:46;;;;;;;;;54.25;43.50;;;;;3.80;51.21;99521.78;4905535;28;45315;-89
2022/12/15 13:34:19;;;;;;;;;53.25;40.75;;;;;3.83;53.06;99628.94;4926234;28;46562;-89
2022/12/15 13:36:48;;;;;;;;;46.75;39.75;;;;;1.93;52.93;99349.00;4944309;28;45438;-90
2022/12/15 13:39:17;;;;;;;;;58.00;44.25;;;;;3.87;53.55;99725.66;4938021;28;45560;-89
2022/12/15 13:41:45;;;;;;;;;48.00;40.25;;;;;3.03;53.36;99623.28;4935093;28;45370;-94
2022/12/15 13:44:23;;;;;;;;;55.25;43.25;;;;;2.42;53.85;99569.56;4944792;28;47131;-91
2022/12/15 13:46:52;;;;;;;;;55.25;44.25;;;;;2.60;54.44;99644.31;4958264;28;45220;-94
2022/12/15 13:49:36;;;;;;;;;59.00;48.25;;;;;2.82;55.11;99717.34;4957241;28;45418;-94
2022/12/15 13:52:23;;;;;;;;;51.50;41.75;;;;;0.38;55.21;99356.97;4955092;28;45407;-93
2022/12/15 13:54:56;;;;;;;;;46.25;39.25;;;;;1.71;56.02;99589.66;4952143;28;46977;-92
2022/12/15 13:57:24;;;;;;;;;51.25;41.75;;;;;1.00;56.44;99469.81;4955380;28;45478;-92
2022/12/15 14:00:20;;;;;;;;;45.50;40.00;;;;;0.82;56.83;99479.31;4948442;28;44827;-92
2022/12/15 14:02:46;;;;;;;;;43.25;38.00;;;;;1.65;56.32;99611.34;4974132;28;45512;-93
2022/12/15 14:05:19;;;;;;;;;45.00;41.25;;;;;2.12;57.53;99729.56;4964065;28;47308;-89
2022/12/15 14:08:12;;;;;;;;;52.00;38.25;;;;;-0.42;55.89;99321.22;4957111;28;45493;-93
2022/12/15 14:10:46;;;;;;;;;52.75;40.75;;;;;0.81;57.10;99519.22;4965973;28;44743;-90
2022/12/15 14:13:39;;;;;;;;;55.00;43.00;;;;;1.29;56.76;99604.34;4951001;28;45434;-90
2022/12/15 14:16:34;;;;;;;;;43.50;37.75;;;;;0.39;56.37;99463.59;4914809;28;47357;-91
2022/12/15 14:19:16;;;;;;;;;44.00;36.50;;;;;0.22;57.43;99444.47;4874143;29;45404;-90
2022/12/15 14:21:54;;;;;;;;;49.50;38.75;;;;;1.68;57.74;99692.13;4861675;29;44834;-91
2022/12/15 14:24:32;;;;;;;;;41.50;34.75;;;;;1.65;57.85;99702.53;4889571;29;45480;-90
2022/12/15 14:26:57;;;;;;;;;33.00;31.00;;;;;1.15;57.81;99648.56;4886888;29;46874;-91
2022/12/15 14:29:24;;;;;;;;;42.50;39.00;;;;;1.62;58.29;99709.50;4876445;29;45936;-91
2022/12/15 14:31:56;;;;;;;;;44.50;38.00;;;;;-0.57;58.25;99368.75;4884308;29;45362;-91
2022/12/15 14:34:24;;;;;;;;;45.25;37.75;;;;;1.53;57.77;99723.34;4842895;29;45536;-92
2022/12/15 14:36:50;;;;;;;;;43.75;35.75;;;;;0.14;57.95;99505.06;4869814;29;46489;-92
2022/12/15 14:39:33;;;;;;;;;37.75;33.00;;;;;0.56;56.91;99595.41;4854184;29;45356;-90
2022/12/15 14:42:00;;;;;;;;;38.75;37.00;;;;;-0.36;57.04;99433.78;4855904;29;45360;-91
2022/12/15 14:44:25;;;;;;;;;40.75;37.50;;;;;1.46;57.43;99742.41;4859382;29;45617;-91
2022/12/15 14:46:51;;;;;;;;;40.50;36.75;;;;;-0.04;57.24;99504.97;4891187;29;46708;-92
2022/12/15 14:49:21;;;;;;;;;41.25;35.25;;;;;0.89;56.23;99649.34;4857774;29;44884;-92
2022/12/15 14:51:51;;;;;;;;;38.75;33.25;;;;;-0.15;56.83;99472.84;4869664;29;45530;-90
2022/12/15 14:54:37;;;;;;;;;30.50;23.50;;;;;-0.93;57.06;99344.28;4886280;28;45350;-90
2022/12/15 14:57:13;;;;;;;;;47.25;37.50;;;;;-0.16;56.76;99497.97;4950171;28;47753;-90
2022/12/15 14:59:42;;;;;;;;;38.00;31.75;;;;;-0.49;57.25;99444.94;4980366;28;45475;-89
2022/12/15 15:02:08;;;;;;;;;33.00;29.00;;;;;1.18;56.86;99722.34;4968827;28;44831;-90
2022/12/15 15:04:33;;;;;;;;;35.50;29.00;;;;;0.89;56.96;99688.38;4966675;28;45423;-90
2022/12/15 15:07:01;;;;;;;;;30.75;26.25;;;;;0.21;56.53;99567.47;4949800;28;47017;-91
2022/12/15 15:09:30;;;;;;;;;32.50;32.50;;;;;-0.85;56.00;99404.00;4963639;28;45270;-91